Falmouth, Massachusetts
Current Conditions -  °F | °C
As of 3:35 PM on Monday 22 Dec 2014 (Local Time) from KFMH Reporting Station
Overcast Overcast  
Wind Chill: 38°   Ceiling: 2300
Heat Index: 43°   Visibility: 8mi
Dew Point: 39°   Wind: 8mph
Humidity: 87%   Direction: 110°ESE
Pressure: 30.3"   Gusts: NA
Location:  41.55°N, 70.61°W
Report Text: KFMH 222035Z 11007KT 8SM BKN023 BKN028 OVC033 06/04 A3030 RMK AO2
Loading
Personal Weather Stations






























Interactive Weather Map New forecast layout! Learn more

10-Day Weather Forecast

Advertisements
Track Severe Weather on mobile